Barcroft Research Lab Weather observations

Data are for 10 minute period ending at time listed.
 Day   Time   Solar   Ave.   Ave.  Ave.  Vector  Std.   Max.    Baro.    
  of    of     Rad.   Air    Rel.  Wind   Wind   Dev.   Wind   Press.    
Year   Day            Temp.  Hum.  Speed  Dir.   Dir.   Gust            
2014   (PST)  Kw/m2    F      %     mph   deg.   deg.    mph     mb.    
------------------------------------------------------------------------
 294   17:40       0   29.4    32    8.9   256    -99    20.5   642.50  
 294   17:50       0   29.4    32    9.3   258    -99    16.4   642.50  
 294   18:00       0   29.2    33   10.1   256    -99    20.2   642.50  
 294   18:10       0   29.2    33   10.2   266    -99    21.3   642.70  
 294   18:20       0   29.1    33    9.9   252    -99    17.2   642.70  
 294   18:30       0   28.9    34   11.5   253    -99    17.3   642.70  
 294   18:40       0   28.6    35   12.2   256    -99    18.3   642.70  
 294   18:50       0   28.6    35   11.4   252    -99    18.9   642.70  
 294   19:00       0   28.5    35   11.2   258    -99    17.3   642.70  
 294   19:10       0   28.3    35   10.3   252    -99    16.8   643.00  
 294   19:20       0   28.2    36   10.7   257    -99    15.9   643.00  
 294   19:30       0   28.3    36    9.9   253    -99    16.8   643.00  
 294   19:40       0   28.4    37    9.8   257    -99    18.3   643.00  
 294   19:50       0   28.6    38    8.3   266    -99    17.5   643.00  
 294   20:00       0   29.1    39    8.5   274    -99    15.9   643.00  
 294   20:10       0   29.5    43    8.2   267    -99    18.1   643.00  
 294   20:20       0   29.2    42   10.3   267    -99    20.4   643.00  
 294   20:30       0   28.3    43   10.6   272    -99    17.8   643.00  
 294   20:40       0   28.2    41   10.3   269    -99    18.4   643.00  
 294   20:50       0   28.3    44    9.3   272    -99    15.1   643.00  
 294   21:00       0   28.4    55    9.0   273    -99    13.2   643.00  
 294   21:10       0   28.4    55    9.4   275    -99    14.6   643.20  
 294   21:20       0   28.2    55    9.0   277    -99    13.7   643.20  
 294   21:30       0   28.2    58    8.8   277    -99    12.4   643.20  
 294   21:40       0   27.9    56    8.8   279    -99    12.7   643.20  
 294   21:50       0   27.9    55    8.2   278    -99    12.5   643.20  
 294   22:00       0   27.7    57    7.9   283    -99    13.2   643.20  
 294   22:10       0   27.8    59    7.8   288    -99    11.6   643.30  
 294   22:20       0   27.8    61    6.9   288    -99    11.2   643.30  
 294   22:30       0   28.2    64    8.4   306    -99    14.0   643.30  
 294   22:40       0   28.8    64    8.0   308    -99    12.6   643.30  
 294   22:50       0   29.0    64   10.0   305    -99    16.7   643.30  
 294   23:00       0   29.2    64   10.2   307    -99    15.1   643.30  
 294   23:10       0   29.2    64   10.4   304    -99    15.8   643.50  
 294   23:20       0   29.4    64    9.8   309    -99    14.5   643.50  
 294   23:30       0   29.4    64    9.5   306    -99    15.5   643.50  
 294   23:40       0   29.3    63    9.6   310    -99    16.7   643.50  
 294   23:50       0   28.8    65    5.6   317    -99    10.2   643.50  
 295    0:00       0   29.1    63    9.0   309    -99    14.8   643.50  
 295    0:10       0   29.2    63    7.4   311    -99    12.9   643.70  
 295    0:20       0   28.9    63    6.2   319    -99    13.0   643.70  
 295    0:30       0   29.1    62    8.3   308    -99    13.6   643.70  
 295    0:40       0   29.2    61    9.5   309    -99    14.3   643.70  
 295    0:50       0   29.4    61    9.9   309    -99    15.3   643.70  
 295    1:00       0   29.3    61    8.9   313    -99    13.3   643.70  
 295    1:10       0   29.1    62    7.5   315    -99    13.6   644.00  
 295    1:20       0   29.2    62    9.7   310    -99    21.8   644.00  
 295    1:30       0   29.2    62   10.8   311    -99    22.5   644.00  
 295    1:40       0   29.2    62   12.8   308    -99    20.9   644.00  
 295    1:50       0   29.1    63   12.7   308    -99    20.9   644.00  
 295    2:00       0   29.0    64   11.1   308    -99    20.8   644.00  
 295    2:10       0   29.3    63    9.0   314    -99    17.2   644.40  
 295    2:20       0   29.4    62    8.4   323    -99    18.1   644.40  
 295    2:30       0   29.7    61    6.5   325    -99    13.4   644.40  
 295    2:40       0   30.4    58   10.1   319    -99    19.7   644.40  
 295    2:50       0   30.8    56    9.9   318    -99    19.6   644.40  
 295    3:00       0   31.1    55   10.1   318    -99    17.9   644.40  
 295    3:10       0   31.4    55   10.8   319    -99    21.3   644.80  
 295    3:20       0   31.7    53   10.8   316    -99    20.9   644.80  
 295    3:30       0   31.7    51   10.2   313    -99    18.3   644.80  
 295    3:40       0   31.9    51   11.5   310    -99    25.2   644.80  
 295    3:50       0   31.9    51   12.6   306    -99    20.0   644.80  
 295    4:00       1   31.6    51    8.9   306    -99    15.6   644.80  
 295    4:10       6   31.6    50    9.3   305    -99    15.4   645.10  
 295    4:20      15   32.1    49   10.0   307    -99    16.4   645.10  
 295    4:30      31   32.3    49    9.0   307    -99    17.8   645.10  
 295    4:40      60   32.7    46    9.4   310    -99    15.3   645.10  
 295    4:50      90   33.1    44    8.8   307    -99    15.6   645.10  
 295    5:00     143   33.5    44    8.4   308    -99    14.0   645.10  
 295    5:10     179   34.3    40    7.5   305    -99    14.4   645.60  
 295    5:20     204   34.8    40    4.9   294    -99    13.4   645.60  
 295    5:30     223   35.2    38    5.3   298    -99    10.7   645.60  
 295    5:40     246   35.6    37    6.0   312    -99    12.6   645.60  
 295    5:50     256   35.5    34    9.0   310    -99    12.9   645.60  
 295    6:00     252   35.9    33    8.0   300    -99    15.7   645.60  
 295    6:10     329   36.3    34    5.7   289    -99    10.7   646.20  
 295    6:20     343   36.8    33    6.8   301    -99    12.7   646.20  
 295    6:30     330   37.1    33    7.4   306    -99    13.4   646.20  
 295    6:40     435   37.6    32    5.5   296    -99    11.2   646.20  
 295    6:50     485   38.3    32    5.5   307    -99    13.6   646.20  
 295    7:00     445   38.5    31    7.1   289    -99    12.4   646.20  
 295    7:10     474   38.0    31    7.3   271    -99    17.0   646.60  
 295    7:20     528   38.2    30    8.4   272    -99    14.8   646.60  
 295    7:30     525   38.7    29    8.2   280    -99    14.9   646.60  
 295    7:40     550   38.9    29    7.3   270    -99    15.1   646.60  
 295    7:50     609   39.3    29    8.2   270    -99    15.2   646.60  
 295    8:00     604   40.0    28    7.5   272    -99    15.3   646.60  
 295    8:10     539   39.4    28    9.7   268    -99    16.6   646.80  
 295    8:20     514   39.2    27   10.2   277    -99    14.8   646.80  
 295    8:30     538   40.0    26    9.1   278    -99    15.3   646.80  
 295    8:40     570   40.7    25   10.4   281    -99    15.8   646.80  
 295    8:50     684   40.9    26    8.6   275    -99    16.9   646.80  
 295    9:00     661   40.7    26   10.0   272    -99    20.6   646.80  
 295    9:10     671   41.0    25   11.6   286    -99    17.1   646.90  
 295    9:20     686   41.3    26    8.9   286    -99    17.0   646.90  
 295    9:30     667   41.7    26   10.5   276    -99    22.6   646.90  
 295    9:40     687   42.0    26    9.3   283    -99    24.0   646.90  
 295    9:50     721   42.7    25   11.3   276    -99    20.4   646.90  
 295   10:00     715   42.7    25   12.6   286    -99    20.7   646.90  
 295   10:10     747   43.0    26   12.8   279    -99    20.6   646.80  
 295   10:20     725   42.9    26   12.4   280    -99    20.2   646.80  
 295   10:30     681   42.6    27   11.6   278    -99    22.9   646.80  
 295   10:40     673   42.4    27    9.7   271    -99    19.1   646.80  
 295   10:50     679   43.0    27   10.5   283    -99    18.8   646.80  
 295   11:00     661   42.7    27   12.0   289    -99    17.7   646.80  
 295   11:10     648   42.5    28   10.9   278    -99    17.8   646.90  
 295   11:20     628   42.7    28    9.6   266    -99    17.0   646.90  
 295   11:30     618   43.5    27    9.0   268    -99    18.2   646.90  
 295   11:40     547   43.4    28    9.3   271    -99    18.8   646.90  
 295   11:50     562   44.3    27    6.5   271    -99    14.9   646.90  
 295   12:00     548   43.8    27    8.8   257    -99    17.8   646.90  
 295   12:10     511   43.5    28    8.6   266    -99    15.1   646.80  
 295   12:20     494   43.3    28    8.0   269    -99    13.9   646.80  
 295   12:30     486   43.6    28    9.0   265    -99    16.3   646.80  
 295   12:40     417   43.3    28    7.9   274    -99    13.7   646.80  
 295   12:50     397   43.3    28    7.9   271    -99    15.7   646.80  
 295   13:00     371   43.1    29    8.3   276    -99    15.4   646.80  
 295   13:10     308   42.6    29    8.1   273    -99    12.5   646.90  
 295   13:20     336   42.4    30    8.4   270    -99    15.9   646.90  
 295   13:30     276   42.6    30    8.8   284    -99    17.0   646.90  
 295   13:40     239   41.9    31    7.2   283    -99    17.1   646.90  
 295   13:50     210   42.0    31    7.6   274    -99    17.2   646.90  
 295   14:00     166   41.1    32    8.9   266    -99    14.0   646.90  
 295   14:10      34   40.1    33    7.2   272    -99    15.4   646.90  
 295   14:20      31   39.6    33    7.8   268    -99    20.0   646.90  
 295   14:30      34   39.6    32    8.2   268    -99    15.7   646.90  
 295   14:40      24   39.3    33    8.6   272    -99    20.0   646.90  
 295   14:50      16   39.0    33    7.4   268    -99    19.6   646.90  
 295   15:00       8   38.6    33    8.6   272    -99    18.2   646.90  
 295   15:10       5   38.4    33    9.1   282    -99    24.7   646.80  
 295   15:20       1   38.1    33    8.2   269    -99    17.9   646.80  
 295   15:30       0   38.1    33    9.1   270    -99    16.4   646.80  
 295   15:40       0   37.7    34    9.4   270    -99    21.2   646.80  
 295   15:50       0   37.5    34    9.0   268    -99    19.6   646.80  
 295   16:00       0   37.2    34    9.1   271    -99    18.0   646.80  
 295   16:10       0   36.7    36    8.3   271    -99    14.2   647.00  
 295   16:20       0   36.6    36    8.7   264    -99    19.4   647.00  
 295   16:30       0   36.9    36    7.5   265    -99    17.7   647.00  
 295   16:40       0   36.9    36    8.8   255    -99    18.8   647.00  
 295   16:50       0   37.2    35    8.7   267    -99    24.0   647.00  
 295   17:00       0   37.1    35    8.1   276    -99    18.9   647.00  
 295   17:10       0   37.0    35    9.5   271    -99    21.0   647.20  
 295   17:20       0   36.7    35    9.5   273    -99    19.1   647.20  
 295   17:30       0   36.9    35    9.5   258    -99    15.9   647.20  

Return to Barcroft Research Lab graphs page.


Western Regional Climate Center,wrcc@dri.edu